Time;durP1;ratioP1;P1;durP2;ratioP2;P2;SDS_P1;SDS_P2;PMS_P1;PMS_P2;Temp;Humidity;BMP_temperature;BMP_pressure;BME280_temperature;BME280_humidity;BME280_pressure;Samples;Min_cycle;Max_cycle;Signal;HPM_P1;HPM_P2
2021/04/24 00:00:14;;;;;;;;;;;12.40;55.10;;;;;;2077630;28;722;-59
2021/04/24 00:01:34;;;;;;;;;;;12.40;55.10;;;;;;2074188;28;727;-59
2021/04/24 00:02:53;;;;;;;;;;;12.40;55.10;;;;;;2085135;28;982;-58
2021/04/24 00:04:12;;;;;;;;;;;12.40;55.10;;;;;;2066437;28;938;-56
2021/04/24 00:05:41;;;;;;;;;;;12.40;55.10;;;;;;2078934;28;742;-56
2021/04/24 00:07:00;;;;;;;;;;;12.40;55.10;;;;;;2073854;28;722;-57
2021/04/24 00:08:19;;;;;;;;;;;12.40;55.10;;;;;;2072135;28;1497;-58
2021/04/24 00:09:39;;;;;;;;;;;12.40;55.10;;;;;;2079151;28;1598;-57
2021/04/24 00:10:58;;;;;;;;;;;12.40;55.10;;;;;;2082580;28;1387;-59
2021/04/24 00:12:17;;;;;;;;;;;12.40;55.10;;;;;;2082639;28;718;-59
2021/04/24 00:13:36;;;;;;;;;;;12.40;55.10;;;;;;2073898;28;705;-59
2021/04/24 00:14:55;;;;;;;;;;;12.40;55.20;;;;;;2078065;28;715;-58
2021/04/24 00:16:15;;;;;;;;;;;12.40;55.10;;;;;;2082624;28;939;-59
2021/04/24 00:17:34;;;;;;;;;;;12.40;55.70;;;;;;2082021;28;1906;-59
2021/04/24 00:18:53;;;;;;;;;;;12.40;55.20;;;;;;2082278;28;787;-57
2021/04/24 00:20:13;;;;;;;;;;;12.40;55.70;;;;;;2082041;28;753;-59
2021/04/24 00:21:33;;;;;;;;;;;12.40;55.20;;;;;;2082678;28;725;-58
2021/04/24 00:22:52;;;;;;;;;;;12.30;55.20;;;;;;2075409;28;1290;-59
2021/04/24 00:24:11;;;;;;;;;;;12.30;55.20;;;;;;2065834;28;712;-59
2021/04/24 00:25:31;;;;;;;;;;;12.30;55.20;;;;;;2071099;28;983;-59
2021/04/24 00:26:50;;;;;;;;;;;12.30;55.20;;;;;;2073480;28;803;-59
2021/04/24 00:28:10;;;;;;;;;;;12.30;55.20;;;;;;2065761;28;785;-60
2021/04/24 00:29:29;;;;;;;;;;;12.30;55.20;;;;;;2070406;28;726;-58
2021/04/24 00:30:49;;;;;;;;;;;12.30;55.20;;;;;;2064619;28;1451;-59
2021/04/24 00:32:08;;;;;;;;;;;12.30;55.30;;;;;;2064150;28;980;-60
2021/04/24 00:33:27;;;;;;;;;;;12.30;55.30;;;;;;2084463;28;992;-59
2021/04/24 00:34:46;;;;;;;;;;;12.30;55.80;;;;;;2087577;28;1162;-57
2021/04/24 00:36:05;;;;;;;;;;;12.30;55.20;;;;;;2074598;28;1620;-60
2021/04/24 00:37:24;;;;;;;;;;;12.30;55.30;;;;;;2070819;28;774;-57
2021/04/24 00:38:43;;;;;;;;;;;12.30;55.30;;;;;;2074276;28;736;-58
2021/04/24 00:40:03;;;;;;;;;;;12.30;55.30;;;;;;2073049;28;768;-58
2021/04/24 00:41:22;;;;;;;;;;;12.30;55.30;;;;;;2073876;28;1050;-56
2021/04/24 00:42:42;;;;;;;;;;;12.30;55.80;;;;;;2065651;28;731;-58
2021/04/24 00:44:01;;;;;;;;;;;12.30;55.30;;;;;;2065420;28;1927;-57
2021/04/24 00:45:21;;;;;;;;;;;12.30;55.30;;;;;;2070850;28;970;-58
2021/04/24 00:46:41;;;;;;;;;;;12.30;55.30;;;;;;2081633;28;1150;-58
2021/04/24 00:48:00;;;;;;;;;;;12.30;55.30;;;;;;2065401;28;741;-58
2021/04/24 00:49:20;;;;;;;;;;;12.30;55.30;;;;;;2075439;28;727;-58
2021/04/24 00:50:39;;;;;;;;;;;12.30;55.40;;;;;;2081024;28;1592;-57
2021/04/24 00:51:59;;;;;;;;;;;12.30;55.40;;;;;;2082310;28;746;-58
2021/04/24 00:53:18;;;;;;;;;;;12.30;55.40;;;;;;2082441;28;708;-56
2021/04/24 00:54:37;;;;;;;;;;;12.30;55.40;;;;;;2081766;28;791;-57
2021/04/24 00:55:57;;;;;;;;;;;12.30;55.40;;;;;;2073495;28;739;-57
2021/04/24 00:57:16;;;;;;;;;;;12.30;55.40;;;;;;2078833;28;721;-58
2021/04/24 00:58:35;;;;;;;;;;;12.30;55.40;;;;;;2082146;28;1001;-57
2021/04/24 00:59:54;;;;;;;;;;;12.30;55.40;;;;;;2081664;28;763;-58
2021/04/24 01:01:13;;;;;;;;;;;12.30;55.50;;;;;;2073324;28;1353;-59
2021/04/24 01:02:33;;;;;;;;;;;12.30;55.50;;;;;;2073981;28;954;-57
2021/04/24 01:03:52;;;;;;;;;;;12.20;55.30;;;;;;2067149;28;1347;-58
2021/04/24 01:05:13;;;;;;;;;;;12.30;55.50;;;;;;2083960;28;803;-59
2021/04/24 01:06:33;;;;;;;;;;;12.30;55.50;;;;;;2081349;28;763;-58
2021/04/24 01:07:52;;;;;;;;;;;12.20;55.90;;;;;;2086877;28;682;-58
2021/04/24 01:09:11;;;;;;;;;;;12.30;55.50;;;;;;2081645;28;697;-57
2021/04/24 01:10:31;;;;;;;;;;;12.30;55.50;;;;;;2086627;28;1316;-59
2021/04/24 01:11:50;;;;;;;;;;;12.20;55.50;;;;;;2090654;28;725;-60
2021/04/24 01:13:10;;;;;;;;;;;12.20;55.40;;;;;;2081466;28;944;-58
2021/04/24 01:14:29;;;;;;;;;;;12.20;55.50;;;;;;2065307;28;796;-59
2021/04/24 01:15:48;;;;;;;;;;;12.20;55.50;;;;;;2070618;28;767;-59
2021/04/24 01:17:08;;;;;;;;;;;12.20;55.50;;;;;;2080340;28;1436;-59
2021/04/24 01:18:27;;;;;;;;;;;12.20;55.50;;;;;;2073255;28;1914;-59
2021/04/24 01:19:46;;;;;;;;;;;12.20;55.50;;;;;;2073412;28;792;-59
2021/04/24 01:21:05;;;;;;;;;;;12.20;55.50;;;;;;2073703;28;1377;-58
2021/04/24 01:22:25;;;;;;;;;;;12.20;55.80;;;;;;2073510;28;812;-57
2021/04/24 01:23:44;;;;;;;;;;;12.20;56.00;;;;;;2073568;28;742;-57
2021/04/24 01:25:05;;;;;;;;;;;12.20;56.00;;;;;;2065222;28;939;-57
2021/04/24 01:26:24;;;;;;;;;;;12.20;55.50;;;;;;2062404;28;713;-57
2021/04/24 01:27:56;;;;;;;;;;;12.20;55.50;;;;;;2072411;28;1773;-59
2021/04/24 01:29:16;;;;;;;;;;;12.20;55.50;;;;;;2082213;28;1088;-58
2021/04/24 01:30:38;;;;;;;;;;;12.20;55.50;;;;;;2077530;28;1411;-57
2021/04/24 01:32:00;;;;;;;;;;;12.20;55.50;;;;;;2065192;28;947;-58
2021/04/24 01:33:19;;;;;;;;;;;12.20;55.60;;;;;;2075436;28;1474;-58
2021/04/24 01:34:38;;;;;;;;;;;12.20;55.50;;;;;;2081809;28;1036;-58
2021/04/24 01:35:58;;;;;;;;;;;12.20;56.10;;;;;;2079873;28;1552;-58
2021/04/24 01:37:17;;;;;;;;;;;12.20;55.50;;;;;;2081096;28;762;-56
2021/04/24 01:38:36;;;;;;;;;;;12.20;55.60;;;;;;2081355;28;790;-58
2021/04/24 01:39:55;;;;;;;;;;;12.20;55.60;;;;;;2075458;28;1551;-56
2021/04/24 01:41:14;;;;;;;;;;;12.20;55.60;;;;;;2078363;28;1373;-59
2021/04/24 01:42:34;;;;;;;;;;;12.20;55.60;;;;;;2082087;28;701;-57
2021/04/24 01:43:53;;;;;;;;;;;12.20;55.60;;;;;;2081887;28;685;-57
2021/04/24 01:45:13;;;;;;;;;;;12.20;55.70;;;;;;2075960;28;1593;-58
2021/04/24 01:46:32;;;;;;;;;;;12.20;55.70;;;;;;2076580;28;1024;-58
2021/04/24 01:47:52;;;;;;;;;;;12.20;55.70;;;;;;2080810;28;1624;-57
2021/04/24 01:49:11;;;;;;;;;;;12.20;55.70;;;;;;2074214;28;1006;-56
2021/04/24 01:50:31;;;;;;;;;;;12.20;55.70;;;;;;2069765;28;1487;-57
2021/04/24 01:51:50;;;;;;;;;;;12.20;55.70;;;;;;2072961;28;727;-57
2021/04/24 01:53:10;;;;;;;;;;;12.20;56.30;;;;;;2064833;28;730;-59
2021/04/24 01:54:29;;;;;;;;;;;12.20;56.20;;;;;;2069951;28;718;-58
2021/04/24 01:55:49;;;;;;;;;;;12.10;55.60;;;;;;2073468;28;702;-57
2021/04/24 01:57:08;;;;;;;;;;;12.20;55.70;;;;;;2073956;28;1718;-58
2021/04/24 01:58:28;;;;;;;;;;;12.20;55.70;;;;;;2064410;28;1972;-58
2021/04/24 01:59:47;;;;;;;;;;;12.20;55.70;;;;;;2072420;28;725;-58
2021/04/24 02:01:09;;;;;;;;;;;12.20;55.80;;;;;;2073301;28;1472;-60
2021/04/24 02:02:29;;;;;;;;;;;12.20;55.80;;;;;;2080163;28;928;-59
2021/04/24 02:03:48;;;;;;;;;;;12.20;55.80;;;;;;2075337;28;1063;-56
2021/04/24 02:05:08;;;;;;;;;;;12.10;56.20;;;;;;2085895;28;929;-57
2021/04/24 02:06:27;;;;;;;;;;;12.10;55.70;;;;;;2089746;28;706;-56
2021/04/24 02:08:13;;;;;;;;;;;12.10;55.70;;;;;;2077870;28;1903;-58
2021/04/24 02:09:32;;;;;;;;;;;12.10;55.70;;;;;;2077345;28;1631;-58
2021/04/24 02:10:54;;;;;;;;;;;12.10;55.80;;;;;;2081465;28;1312;-57
2021/04/24 02:12:14;;;;;;;;;;;12.10;56.40;;;;;;2080316;28;1928;-57
2021/04/24 02:13:37;;;;;;;;;;;12.10;55.80;;;;;;2072924;28;765;-57
2021/04/24 02:14:56;;;;;;;;;;;12.10;55.80;;;;;;2064633;28;735;-56
2021/04/24 02:16:15;;;;;;;;;;;12.10;55.90;;;;;;2061507;28;712;-57
2021/04/24 02:17:35;;;;;;;;;;;12.10;55.90;;;;;;2069766;28;1962;-57
2021/04/24 02:18:54;;;;;;;;;;;12.10;55.90;;;;;;2064856;28;767;-57
2021/04/24 02:20:13;;;;;;;;;;;12.10;56.40;;;;;;2069148;28;712;-56
2021/04/24 02:21:33;;;;;;;;;;;12.10;56.40;;;;;;2064730;28;724;-57
2021/04/24 02:22:52;;;;;;;;;;;12.10;55.90;;;;;;2075494;28;2074;-57
2021/04/24 02:24:11;;;;;;;;;;;12.10;55.90;;;;;;2080973;28;750;-57
2021/04/24 02:25:31;;;;;;;;;;;12.10;55.90;;;;;;2064602;28;733;-58
2021/04/24 02:26:50;;;;;;;;;;;12.10;55.90;;;;;;2074622;28;798;-56
2021/04/24 02:28:09;;;;;;;;;;;12.10;55.90;;;;;;2072798;28;741;-57
2021/04/24 02:29:28;;;;;;;;;;;12.10;56.00;;;;;;2064174;28;758;-57
2021/04/24 02:30:48;;;;;;;;;;;12.10;55.90;;;;;;2069912;28;1384;-57
2021/04/24 02:32:07;;;;;;;;;;;12.10;56.00;;;;;;2066286;28;1013;-59
2021/04/24 02:33:26;;;;;;;;;;;12.10;56.00;;;;;;2086057;28;750;-56
2021/04/24 02:34:46;;;;;;;;;;;12.10;56.00;;;;;;2081372;28;1633;-60
2021/04/24 02:36:05;;;;;;;;;;;12.10;56.00;;;;;;2078977;28;1274;-56
2021/04/24 02:37:24;;;;;;;;;;;12.10;56.50;;;;;;2076466;28;1623;-58
2021/04/24 02:38:48;;;;;;;;;;;12.10;56.50;;;;;;2073192;28;722;-58
2021/04/24 02:40:08;;;;;;;;;;;12.00;55.90;;;;;;2072844;28;701;-58
2021/04/24 02:41:27;;;;;;;;;;;12.00;55.90;;;;;;2064606;28;717;-57
2021/04/24 02:42:47;;;;;;;;;;;12.10;56.00;;;;;;2069992;28;731;-57
2021/04/24 02:44:06;;;;;;;;;;;12.10;56.00;;;;;;2073172;28;714;-60
2021/04/24 02:45:25;;;;;;;;;;;12.10;56.00;;;;;;2073797;28;1523;-57
2021/04/24 02:46:44;;;;;;;;;;;12.00;55.90;;;;;;2073064;28;688;-58
2021/04/24 02:48:03;;;;;;;;;;;12.00;56.00;;;;;;2064245;28;838;-58
2021/04/24 02:49:22;;;;;;;;;;;12.00;56.00;;;;;;2056309;28;715;-59
2021/04/24 02:50:42;;;;;;;;;;;12.00;56.00;;;;;;2066280;28;1388;-57
2021/04/24 02:52:01;;;;;;;;;;;12.00;56.50;;;;;;2073272;28;695;-58
2021/04/24 02:53:20;;;;;;;;;;;12.00;56.10;;;;;;2072818;28;719;-55
2021/04/24 02:54:39;;;;;;;;;;;12.00;56.00;;;;;;2072893;28;706;-57
2021/04/24 02:55:59;;;;;;;;;;;12.00;56.10;;;;;;2080765;28;2155;-57
2021/04/24 02:57:18;;;;;;;;;;;12.00;56.10;;;;;;2081092;28;705;-58
2021/04/24 02:58:39;;;;;;;;;;;12.00;56.10;;;;;;2081358;28;768;-55
2021/04/24 02:59:58;;;;;;;;;;;12.00;56.10;;;;;;2070330;28;724;-60
2021/04/24 03:01:18;;;;;;;;;;;12.00;56.10;;;;;;2078134;28;840;-59
2021/04/24 03:02:37;;;;;;;;;;;12.00;56.10;;;;;;2085634;28;933;-59
2021/04/24 03:03:56;;;;;;;;;;;12.00;56.10;;;;;;2085280;28;1072;-57
2021/04/24 03:05:16;;;;;;;;;;;12.00;56.20;;;;;;2082478;28;1803;-59
2021/04/24 03:06:35;;;;;;;;;;;12.00;56.10;;;;;;2078837;28;1529;-59
2021/04/24 03:07:54;;;;;;;;;;;12.00;56.20;;;;;;2079056;28;1395;-60
2021/04/24 03:09:13;;;;;;;;;;;12.00;56.20;;;;;;2073064;28;784;-57
2021/04/24 03:10:32;;;;;;;;;;;12.00;56.20;;;;;;2072641;28;1402;-59
2021/04/24 03:11:52;;;;;;;;;;;12.00;56.20;;;;;;2064245;28;1074;-58
2021/04/24 03:13:12;;;;;;;;;;;12.00;56.20;;;;;;2070436;28;1133;-58
2021/04/24 03:14:31;;;;;;;;;;;12.00;56.20;;;;;;2071187;28;1399;-57
2021/04/24 03:15:50;;;;;;;;;;;12.00;56.20;;;;;;2080782;28;1309;-56
2021/04/24 03:17:10;;;;;;;;;;;12.00;56.20;;;;;;2071953;28;1314;-55
2021/04/24 03:18:29;;;;;;;;;;;12.00;56.20;;;;;;2079073;28;2029;-58
2021/04/24 03:19:48;;;;;;;;;;;12.00;56.20;;;;;;2081764;28;1215;-59
2021/04/24 03:21:07;;;;;;;;;;;12.00;56.20;;;;;;2082286;28;1304;-59
2021/04/24 03:22:26;;;;;;;;;;;11.90;56.10;;;;;;2079279;28;1334;-57
2021/04/24 03:23:45;;;;;;;;;;;12.00;56.20;;;;;;2086102;28;1238;-58
2021/04/24 03:25:05;;;;;;;;;;;12.00;56.80;;;;;;2081369;28;1420;-59
2021/04/24 03:26:25;;;;;;;;;;;12.00;56.20;;;;;;2073306;28;1316;-58
2021/04/24 03:27:44;;;;;;;;;;;12.00;56.20;;;;;;2065118;28;1773;-59
2021/04/24 03:29:03;;;;;;;;;;;12.00;56.30;;;;;;2075742;28;1135;-59
2021/04/24 03:30:22;;;;;;;;;;;12.00;56.30;;;;;;2082142;28;1427;-58
2021/04/24 03:31:41;;;;;;;;;;;12.00;56.30;;;;;;2073667;28;1353;-59
2021/04/24 03:33:01;;;;;;;;;;;11.90;56.20;;;;;;2068648;28;1659;-59
2021/04/24 03:34:20;;;;;;;;;;;11.90;56.20;;;;;;2070917;28;1390;-57
2021/04/24 03:35:40;;;;;;;;;;;11.90;56.20;;;;;;2072257;28;1568;-58
2021/04/24 03:36:58;;;;;;;;;;;11.90;56.20;;;;;;2077245;28;1054;-59
2021/04/24 03:38:18;;;;;;;;;;;11.90;56.20;;;;;;2080175;28;2018;-58
2021/04/24 03:39:37;;;;;;;;;;;11.90;56.30;;;;;;2076066;28;925;-60
2021/04/24 03:40:56;;;;;;;;;;;11.90;56.30;;;;;;2081363;28;1338;-59
2021/04/24 03:42:15;;;;;;;;;;;11.90;56.30;;;;;;2080836;28;1715;-59
2021/04/24 03:43:34;;;;;;;;;;;11.90;56.30;;;;;;2073903;28;1125;-59
2021/04/24 03:44:54;;;;;;;;;;;11.90;56.30;;;;;;2072764;28;1201;-55
2021/04/24 03:46:13;;;;;;;;;;;11.90;56.40;;;;;;2080673;28;1202;-56
2021/04/24 03:47:32;;;;;;;;;;;11.90;56.30;;;;;;2081358;28;1067;-58
2021/04/24 03:48:52;;;;;;;;;;;11.90;56.30;;;;;;2083719;28;1211;-57
2021/04/24 03:50:11;;;;;;;;;;;11.90;56.40;;;;;;2076192;28;1246;-57
2021/04/24 03:51:30;;;;;;;;;;;11.90;56.40;;;;;;2069070;28;1058;-59
2021/04/24 03:52:50;;;;;;;;;;;11.90;56.40;;;;;;2070513;28;1231;-57
2021/04/24 03:54:09;;;;;;;;;;;11.80;56.30;;;;;;2080268;28;987;-59
2021/04/24 03:55:28;;;;;;;;;;;11.90;56.40;;;;;;2081853;28;1381;-57
2021/04/24 03:56:48;;;;;;;;;;;11.90;56.40;;;;;;2083279;28;1512;-57
2021/04/24 03:58:07;;;;;;;;;;;11.80;56.30;;;;;;2082156;28;1914;-58
2021/04/24 03:59:26;;;;;;;;;;;11.90;56.40;;;;;;2083819;28;1109;-57
2021/04/24 04:00:45;;;;;;;;;;;11.80;56.90;;;;;;2082753;28;1730;-58
2021/04/24 04:02:04;;;;;;;;;;;11.90;56.40;;;;;;2084531;28;1114;-58
2021/04/24 04:03:23;;;;;;;;;;;11.90;56.50;;;;;;2075470;28;1263;-58
2021/04/24 04:04:43;;;;;;;;;;;11.90;56.40;;;;;;2071745;28;1315;-56
2021/04/24 04:06:02;;;;;;;;;;;11.90;56.40;;;;;;2081075;28;1162;-57
2021/04/24 04:07:21;;;;;;;;;;;11.90;56.50;;;;;;2075536;28;1054;-58
2021/04/24 04:08:41;;;;;;;;;;;11.90;56.40;;;;;;2072847;28;1417;-58
2021/04/24 04:10:00;;;;;;;;;;;11.90;56.40;;;;;;2083299;28;1068;-59
2021/04/24 04:11:19;;;;;;;;;;;11.90;56.50;;;;;;2073725;28;1383;-59
2021/04/24 04:12:38;;;;;;;;;;;11.90;56.40;;;;;;2081327;28;1387;-58
2021/04/24 04:13:58;;;;;;;;;;;11.80;56.40;;;;;;2074669;28;1144;-57
2021/04/24 04:15:17;;;;;;;;;;;11.80;56.40;;;;;;2071112;28;1357;-59
2021/04/24 04:16:36;;;;;;;;;;;11.80;56.40;;;;;;2075793;28;1307;-55
2021/04/24 04:17:58;;;;;;;;;;;11.80;56.40;;;;;;2072774;28;1914;-57
2021/04/24 04:19:17;;;;;;;;;;;11.80;56.90;;;;;;2081624;28;1144;-57
2021/04/24 04:20:38;;;;;;;;;;;11.80;56.40;;;;;;2081950;28;1550;-57
2021/04/24 04:21:57;;;;;;;;;;;11.80;56.50;;;;;;2073185;28;1092;-60
2021/04/24 04:23:16;;;;;;;;;;;11.80;56.50;;;;;;2084850;28;1202;-57
2021/04/24 04:24:36;;;;;;;;;;;11.80;56.50;;;;;;2076911;28;1515;-58
2021/04/24 04:25:55;;;;;;;;;;;11.80;56.50;;;;;;2081379;28;1243;-56
2021/04/24 04:27:14;;;;;;;;;;;11.80;56.60;;;;;;2084660;28;1133;-57
2021/04/24 04:28:33;;;;;;;;;;;11.80;56.50;;;;;;2081592;28;1096;-58
2021/04/24 04:29:52;;;;;;;;;;;11.80;56.50;;;;;;2084031;28;1354;-59
2021/04/24 04:31:11;;;;;;;;;;;11.80;57.00;;;;;;2076074;28;1484;-61
2021/04/24 04:32:30;;;;;;;;;;;11.80;56.70;;;;;;2061030;28;1192;-59
2021/04/24 04:33:50;;;;;;;;;;;11.80;56.10;;;;;;2073673;28;1196;-60
2021/04/24 04:35:09;;;;;;;;;;;11.80;54.40;;;;;;2073003;28;1618;-56
2021/04/24 04:36:29;;;;;;;;;;;11.80;53.90;;;;;;2077304;28;1299;-58
2021/04/24 04:37:48;;;;;;;;;;;11.80;53.60;;;;;;2084477;28;1899;-57
2021/04/24 04:39:08;;;;;;;;;;;11.80;53.50;;;;;;2075851;28;1159;-57
2021/04/24 04:40:27;;;;;;;;;;;11.80;53.40;;;;;;2072032;28;1571;-58
2021/04/24 04:41:46;;;;;;;;;;;11.70;53.50;;;;;;2075787;28;1340;-56
2021/04/24 04:43:06;;;;;;;;;;;11.70;53.70;;;;;;2080911;28;1246;-58
2021/04/24 04:44:25;;;;;;;;;;;11.70;53.90;;;;;;2074516;28;1420;-58
2021/04/24 04:45:44;;;;;;;;;;;11.80;54.30;;;;;;2078398;28;1448;-58
2021/04/24 04:47:03;;;;;;;;;;;11.80;54.50;;;;;;2084814;28;993;-57
2021/04/24 04:48:22;;;;;;;;;;;11.70;54.80;;;;;;2082874;28;1074;-58
2021/04/24 04:49:42;;;;;;;;;;;11.80;55.50;;;;;;2083807;28;1380;-59
2021/04/24 04:51:01;;;;;;;;;;;11.70;55.60;;;;;;2075302;28;1308;-57
2021/04/24 04:52:20;;;;;;;;;;;11.80;55.20;;;;;;2071666;28;1171;-59
2021/04/24 04:53:40;;;;;;;;;;;11.70;55.20;;;;;;2079228;28;1112;-57
2021/04/24 04:54:59;;;;;;;;;;;11.70;55.30;;;;;;2083648;28;1369;-56
2021/04/24 04:56:18;;;;;;;;;;;11.70;55.30;;;;;;2082576;28;943;-57
2021/04/24 04:57:38;;;;;;;;;;;11.70;55.30;;;;;;2082785;28;1001;-57
2021/04/24 04:58:57;;;;;;;;;;;11.70;55.30;;;;;;2072618;28;1413;-58
2021/04/24 05:00:16;;;;;;;;;;;11.70;55.30;;;;;;2067238;28;1584;-57
2021/04/24 05:01:35;;;;;;;;;;;11.70;55.30;;;;;;2078345;28;1315;-59
2021/04/24 05:02:55;;;;;;;;;;;11.70;55.40;;;;;;2084579;28;1069;-59
2021/04/24 05:04:14;;;;;;;;;;;11.70;55.40;;;;;;2084959;28;1247;-58
2021/04/24 05:05:33;;;;;;;;;;;11.70;55.40;;;;;;2072965;28;1617;-57
2021/04/24 05:06:52;;;;;;;;;;;11.70;55.30;;;;;;2072931;28;1515;-58
2021/04/24 05:08:11;;;;;;;;;;;11.70;55.20;;;;;;2078980;28;1154;-58
2021/04/24 05:09:31;;;;;;;;;;;11.70;55.70;;;;;;2067465;28;1592;-57
2021/04/24 05:10:50;;;;;;;;;;;11.70;55.10;;;;;;2065534;28;1524;-58
2021/04/24 05:12:10;;;;;;;;;;;11.70;55.10;;;;;;2066203;28;1205;-56
2021/04/24 05:13:29;;;;;;;;;;;11.70;55.30;;;;;;2079036;28;1354;-57
2021/04/24 05:14:48;;;;;;;;;;;11.70;55.40;;;;;;2072190;28;1362;-55
2021/04/24 05:16:07;;;;;;;;;;;11.70;55.50;;;;;;2071448;28;1176;-59
2021/04/24 05:17:27;;;;;;;;;;;11.70;55.60;;;;;;2069361;28;1335;-57
2021/04/24 05:18:46;;;;;;;;;;;11.70;55.70;;;;;;2079943;28;1175;-57
2021/04/24 05:20:06;;;;;;;;;;;11.70;55.60;;;;;;2087153;28;1123;-57
2021/04/24 05:21:25;;;;;;;;;;;11.70;55.60;;;;;;2084515;28;1506;-60
2021/04/24 05:22:44;;;;;;;;;;;11.70;55.60;;;;;;2082792;28;990;-55
2021/04/24 05:24:03;;;;;;;;;;;11.70;55.70;;;;;;2084853;28;1210;-57
2021/04/24 05:25:22;;;;;;;;;;;11.70;56.20;;;;;;2068207;28;1560;-56
2021/04/24 05:26:42;;;;;;;;;;;11.70;56.30;;;;;;2070227;28;1344;-56
2021/04/24 05:28:01;;;;;;;;;;;11.70;55.70;;;;;;2080537;28;1281;-56
2021/04/24 05:29:20;;;;;;;;;;;11.70;55.70;;;;;;2076087;28;1051;-57
2021/04/24 05:30:40;;;;;;;;;;;11.70;55.80;;;;;;2070771;28;1491;-58
2021/04/24 05:31:59;;;;;;;;;;;11.70;55.80;;;;;;2074833;28;1267;-57
2021/04/24 05:33:18;;;;;;;;;;;11.70;55.80;;;;;;2068734;28;1063;-58
2021/04/24 05:34:38;;;;;;;;;;;11.70;55.80;;;;;;2080409;28;1433;-58
2021/04/24 05:36:01;;;;;;;;;;;11.70;55.80;;;;;;2078265;28;1220;-56
2021/04/24 05:37:20;;;;;;;;;;;11.70;55.90;;;;;;2082571;28;905;-57
2021/04/24 05:38:39;;;;;;;;;;;11.70;56.40;;;;;;2072568;28;1911;-55
2021/04/24 05:39:59;;;;;;;;;;;11.70;55.80;;;;;;2079043;28;871;-57
2021/04/24 05:41:22;;;;;;;;;;;11.70;55.90;;;;;;2083158;28;1386;-56
2021/04/24 05:42:41;;;;;;;;;;;11.70;55.80;;;;;;2066117;28;1303;-55
2021/04/24 05:44:01;;;;;;;;;;;11.70;55.90;;;;;;2077453;28;1264;-55
2021/04/24 05:45:20;;;;;;;;;;;11.70;55.90;;;;;;2079595;28;1589;-58
2021/04/24 05:46:39;;;;;;;;;;;11.70;55.90;;;;;;2075485;28;1331;-55
2021/04/24 05:47:58;;;;;;;;;;;11.70;55.80;;;;;;2074068;28;1234;-57
2021/04/24 05:49:18;;;;;;;;;;;11.70;55.80;;;;;;2078169;28;1255;-56
2021/04/24 05:50:37;;;;;;;;;;;11.70;55.90;;;;;;2079739;28;1774;-56
2021/04/24 05:51:56;;;;;;;;;;;11.70;56.40;;;;;;2082317;28;1252;-56
2021/04/24 05:53:15;;;;;;;;;;;11.70;56.40;;;;;;2080333;28;1278;-55
2021/04/24 05:54:34;;;;;;;;;;;11.70;55.80;;;;;;2074327;28;1261;-57
2021/04/24 05:55:54;;;;;;;;;;;11.70;55.80;;;;;;2061677;28;1427;-56
2021/04/24 05:57:13;;;;;;;;;;;11.70;55.80;;;;;;2074123;28;1465;-59
2021/04/24 05:58:32;;;;;;;;;;;11.70;55.70;;;;;;2085984;28;1957;-59
2021/04/24 05:59:51;;;;;;;;;;;11.70;55.50;;;;;;2074171;28;1380;-58
2021/04/24 06:01:11;;;;;;;;;;;11.70;55.80;;;;;;2072233;28;1546;-58
2021/04/24 06:02:30;;;;;;;;;;;11.70;56.10;;;;;;2078377;28;1181;-56
2021/04/24 06:03:52;;;;;;;;;;;11.70;56.30;;;;;;2073613;28;1259;-57
2021/04/24 06:05:11;;;;;;;;;;;11.80;56.40;;;;;;2077853;28;1163;-58
2021/04/24 06:06:30;;;;;;;;;;;11.80;56.40;;;;;;2080228;28;1235;-57
2021/04/24 06:07:49;;;;;;;;;;;11.80;57.00;;;;;;2075424;28;1319;-58
2021/04/24 06:09:08;;;;;;;;;;;11.80;56.50;;;;;;2082138;28;1323;-59
2021/04/24 06:10:27;;;;;;;;;;;11.90;57.00;;;;;;2083633;28;1383;-58
2021/04/24 06:11:47;;;;;;;;;;;11.90;56.60;;;;;;2068366;28;1324;-57
2021/04/24 06:13:06;;;;;;;;;;;11.90;56.50;;;;;;2077727;28;1280;-57
2021/04/24 06:14:25;;;;;;;;;;;11.90;56.70;;;;;;2083751;28;1330;-58
2021/04/24 06:15:45;;;;;;;;;;;11.90;56.60;;;;;;2080318;28;1234;-57
2021/04/24 06:17:03;;;;;;;;;;;11.90;56.50;;;;;;2083300;28;1205;-57
2021/04/24 06:18:23;;;;;;;;;;;11.90;56.60;;;;;;2085026;28;1902;-56
2021/04/24 06:19:42;;;;;;;;;;;11.80;56.60;;;;;;2073239;28;1343;-57
2021/04/24 06:21:01;;;;;;;;;;;11.80;56.60;;;;;;2074877;28;1492;-56
2021/04/24 06:22:21;;;;;;;;;;;11.80;56.70;;;;;;2080542;28;1346;-56
2021/04/24 06:23:40;;;;;;;;;;;11.80;56.70;;;;;;2076935;28;1264;-56
2021/04/24 06:24:59;;;;;;;;;;;11.80;56.70;;;;;;2072456;28;1601;-59
2021/04/24 06:26:19;;;;;;;;;;;11.80;56.90;;;;;;2080168;28;1421;-59
2021/04/24 06:27:38;;;;;;;;;;;11.80;56.80;;;;;;2073555;28;1143;-58
2021/04/24 06:28:57;;;;;;;;;;;11.80;56.80;;;;;;2080449;28;1358;-59
2021/04/24 06:30:17;;;;;;;;;;;11.80;56.90;;;;;;2081661;28;1078;-57
2021/04/24 06:31:37;;;;;;;;;;;11.80;56.90;;;;;;2072581;28;1233;-58
2021/04/24 06:32:56;;;;;;;;;;;11.80;56.90;;;;;;2080323;28;1083;-57
2021/04/24 06:34:15;;;;;;;;;;;11.80;56.90;;;;;;2083702;28;1237;-58
2021/04/24 06:35:34;;;;;;;;;;;11.80;56.90;;;;;;2083415;28;1563;-57
2021/04/24 06:36:53;;;;;;;;;;;11.80;57.00;;;;;;2078430;28;1711;-58
2021/04/24 06:38:13;;;;;;;;;;;11.80;57.00;;;;;;2082094;28;1969;-56
2021/04/24 06:39:32;;;;;;;;;;;11.80;57.00;;;;;;2081211;28;959;-57
2021/04/24 06:40:52;;;;;;;;;;;11.80;57.00;;;;;;2075075;28;1475;-57
2021/04/24 06:42:11;;;;;;;;;;;11.80;57.00;;;;;;2069764;28;1211;-58
2021/04/24 06:43:30;;;;;;;;;;;11.80;57.50;;;;;;2081457;28;1247;-57
2021/04/24 06:44:49;;;;;;;;;;;11.80;57.00;;;;;;2085995;28;1450;-56
2021/04/24 06:46:08;;;;;;;;;;;11.80;57.00;;;;;;2078632;28;1412;-56
2021/04/24 06:47:27;;;;;;;;;;;11.80;57.00;;;;;;2075127;28;990;-57
2021/04/24 06:48:47;;;;;;;;;;;11.80;57.00;;;;;;2082307;28;1262;-56
2021/04/24 06:50:07;;;;;;;;;;;11.80;57.00;;;;;;2064363;28;1172;-58
2021/04/24 06:51:26;;;;;;;;;;;11.80;57.10;;;;;;2078108;28;1067;-55
2021/04/24 06:52:45;;;;;;;;;;;11.80;57.10;;;;;;2073392;28;1145;-57
2021/04/24 06:54:04;;;;;;;;;;;11.80;57.10;;;;;;2080555;28;1049;-58
2021/04/24 06:55:25;;;;;;;;;;;11.80;57.10;;;;;;2070200;28;1292;-58
2021/04/24 06:56:45;;;;;;;;;;;11.80;57.00;;;;;;2072572;28;1117;-55
2021/04/24 06:58:04;;;;;;;;;;;11.80;57.10;;;;;;2081340;28;1906;-56
2021/04/24 06:59:23;;;;;;;;;;;11.80;57.60;;;;;;2079962;28;890;-59
2021/04/24 07:00:43;;;;;;;;;;;11.80;57.10;;;;;;2078766;28;1414;-55
2021/04/24 07:02:02;;;;;;;;;;;11.80;57.00;;;;;;2072057;28;1262;-58
2021/04/24 07:03:22;;;;;;;;;;;11.80;57.10;;;;;;2080485;28;1481;-56
2021/04/24 07:04:41;;;;;;;;;;;11.90;57.20;;;;;;2069772;28;1328;-57
2021/04/24 07:06:00;;;;;;;;;;;11.80;57.00;;;;;;2070557;28;1279;-56
2021/04/24 07:07:20;;;;;;;;;;;11.80;57.10;;;;;;2071013;28;1282;-58
2021/04/24 07:08:39;;;;;;;;;;;11.80;57.10;;;;;;2077470;28;930;-59
2021/04/24 07:09:58;;;;;;;;;;;11.80;57.20;;;;;;2063484;28;1495;-55
2021/04/24 07:11:17;;;;;;;;;;;11.80;57.20;;;;;;2066185;28;1444;-57
2021/04/24 07:12:37;;;;;;;;;;;11.90;57.30;;;;;;2077719;28;1031;-55
2021/04/24 07:13:56;;;;;;;;;;;11.90;57.40;;;;;;2074403;28;1106;-56
2021/04/24 07:15:15;;;;;;;;;;;11.90;57.30;;;;;;2070449;28;1585;-56
2021/04/24 07:16:34;;;;;;;;;;;11.90;57.90;;;;;;2078285;28;1041;-57
2021/04/24 07:17:53;;;;;;;;;;;12.00;57.40;;;;;;2070855;28;1906;-56
2021/04/24 07:19:13;;;;;;;;;;;12.00;57.30;;;;;;2074475;28;1566;-57
2021/04/24 07:20:32;;;;;;;;;;;12.00;57.30;;;;;;2078498;28;1467;-58
2021/04/24 07:21:52;;;;;;;;;;;12.10;57.20;;;;;;2080610;28;1150;-57
2021/04/24 07:23:11;;;;;;;;;;;12.10;57.10;;;;;;2072934;28;1254;-57
2021/04/24 07:24:31;;;;;;;;;;;12.10;57.00;;;;;;2076378;28;1425;-57
2021/04/24 07:25:49;;;;;;;;;;;12.20;56.90;;;;;;2075867;28;1428;-58
2021/04/24 07:27:09;;;;;;;;;;;12.20;56.80;;;;;;2081972;28;1186;-56
2021/04/24 07:28:28;;;;;;;;;;;12.20;56.70;;;;;;2081453;28;1163;-57
2021/04/24 07:29:47;;;;;;;;;;;12.30;56.70;;;;;;2071125;28;1244;-57
2021/04/24 07:31:08;;;;;;;;;;;12.20;56.50;;;;;;2076668;28;1444;-57
2021/04/24 07:32:27;;;;;;;;;;;12.20;56.50;;;;;;2081813;28;1116;-57
2021/04/24 07:33:46;;;;;;;;;;;12.30;57.10;;;;;;2082879;28;1172;-57
2021/04/24 07:35:06;;;;;;;;;;;12.30;56.50;;;;;;2082926;28;1196;-56
2021/04/24 07:36:26;;;;;;;;;;;12.30;56.50;;;;;;2080160;28;1377;-56
2021/04/24 07:37:45;;;;;;;;;;;12.30;56.50;;;;;;2074637;28;1128;-57
2021/04/24 07:39:05;;;;;;;;;;;12.30;56.50;;;;;;2080359;28;1032;-58
2021/04/24 07:40:24;;;;;;;;;;;12.30;56.50;;;;;;2082341;28;1441;-59
2021/04/24 07:41:43;;;;;;;;;;;12.30;56.50;;;;;;2082567;28;1146;-57
2021/04/24 07:43:03;;;;;;;;;;;12.30;56.50;;;;;;2082649;28;1230;-58
2021/04/24 07:44:24;;;;;;;;;;;12.30;56.50;;;;;;2081763;28;1443;-58
2021/04/24 07:45:43;;;;;;;;;;;12.30;56.60;;;;;;2071064;28;1414;-57
2021/04/24 07:47:02;;;;;;;;;;;12.30;57.10;;;;;;2065851;28;1263;-59
2021/04/24 07:48:21;;;;;;;;;;;12.30;56.60;;;;;;2075591;28;1182;-60
2021/04/24 07:49:41;;;;;;;;;;;12.40;56.70;;;;;;2085306;28;1081;-57
2021/04/24 07:51:00;;;;;;;;;;;12.40;56.60;;;;;;2083398;28;1526;-57